Slater, Minnesota
Current Conditions -  °F | °C
As of 6:16 AM on Monday 24 Nov 2014 (Local Time) from KXVG Reporting Station
Haze Haze  
Wind Chill:   Ceiling: 1000
Heat Index: 18°   Visibility: 5mi
Dew Point: 16°   Wind: 12mph
Humidity: 93%   Direction: 300°WNW
Pressure: 29.4"   Gusts: 22mph
Location:  47.0973°N, 93.9173°W
Report Text: KXVG 241216Z AUTO 30010G19KT 5SM BR OVC010 M08/M09 A2940 RMK AO2
Loading
Personal Weather Stations






























Interactive Weather Map New forecast layout! Learn more

10-Day Weather Forecast

Advertisements
Track Severe Weather on mobile